sensor_id;sensor_type;location;lat;lon;timestamp;pressure;altitude;pressure_sealevel;temperature;humidity
67029;BME280;53934;52.142;11.738;2022-10-10T00:00:26;101488.00;;;8.30;73.35
67029;BME280;53934;52.142;11.738;2022-10-10T00:02:53;101483.09;;;8.18;73.71
67029;BME280;53934;52.142;11.738;2022-10-10T00:05:19;101491.75;;;8.20;73.39
67029;BME280;53934;52.142;11.738;2022-10-10T00:07:45;101483.69;;;8.27;72.37
67029;BME280;53934;52.142;11.738;2022-10-10T00:10:12;101484.81;;;8.19;72.08
67029;BME280;53934;52.142;11.738;2022-10-10T00:12:38;101479.59;;;8.19;72.56
67029;BME280;53934;52.142;11.738;2022-10-10T00:15:07;101482.53;;;8.08;71.67
67029;BME280;53934;52.142;11.738;2022-10-10T00:17:33;101473.38;;;7.94;71.63
67029;BME280;53934;52.142;11.738;2022-10-10T00:20:00;101483.28;;;7.82;73.58
67029;BME280;53934;52.142;11.738;2022-10-10T00:22:26;101470.34;;;8.07;73.19
67029;BME280;53934;52.142;11.738;2022-10-10T00:24:52;101476.13;;;8.18;72.69
67029;BME280;53934;52.142;11.738;2022-10-10T00:27:19;101468.63;;;8.06;72.63
67029;BME280;53934;52.142;11.738;2022-10-10T00:29:45;101467.72;;;7.79;74.48
67029;BME280;53934;52.142;11.738;2022-10-10T00:32:12;101460.31;;;7.64;74.77
67029;BME280;53934;52.142;11.738;2022-10-10T00:34:39;101458.50;;;7.66;75.22
67029;BME280;53934;52.142;11.738;2022-10-10T00:37:05;101457.38;;;7.75;74.68
67029;BME280;53934;52.142;11.738;2022-10-10T00:39:31;101456.63;;;7.71;73.79
67029;BME280;53934;52.142;11.738;2022-10-10T00:41:58;101456.31;;;7.82;72.84
67029;BME280;53934;52.142;11.738;2022-10-10T00:44:25;101455.94;;;7.65;74.25
67029;BME280;53934;52.142;11.738;2022-10-10T00:46:52;101455.75;;;7.71;73.03
67029;BME280;53934;52.142;11.738;2022-10-10T00:49:21;101450.72;;;7.65;72.96
67029;BME280;53934;52.142;11.738;2022-10-10T00:51:49;101446.53;;;7.59;74.79
67029;BME280;53934;52.142;11.738;2022-10-10T00:54:16;101447.63;;;7.81;75.36
67029;BME280;53934;52.142;11.738;2022-10-10T00:56:44;101437.34;;;8.05;74.48
67029;BME280;53934;52.142;11.738;2022-10-10T00:59:12;101434.81;;;7.72;73.54
67029;BME280;53934;52.142;11.738;2022-10-10T01:01:39;101436.41;;;7.78;75.91
67029;BME280;53934;52.142;11.738;2022-10-10T01:06:49;101434.94;;;8.26;77.05
67029;BME280;53934;52.142;11.738;2022-10-10T01:09:15;101438.38;;;7.99;77.14
67029;BME280;53934;52.142;11.738;2022-10-10T01:11:44;101432.13;;;8.05;76.27
67029;BME280;53934;52.142;11.738;2022-10-10T01:14:14;101427.03;;;8.28;74.94
67029;BME280;53934;52.142;11.738;2022-10-10T01:16:46;101420.28;;;8.21;75.26
67029;BME280;53934;52.142;11.738;2022-10-10T01:19:20;101428.88;;;8.24;73.84
67029;BME280;53934;52.142;11.738;2022-10-10T01:21:54;101422.13;;;8.19;72.98
67029;BME280;53934;52.142;11.738;2022-10-10T01:24:42;101419.66;;;7.85;73.68
67029;BME280;53934;52.142;11.738;2022-10-10T01:27:17;101420.09;;;7.99;74.10
67029;BME280;53934;52.142;11.738;2022-10-10T01:29:49;101410.81;;;7.91;73.94
67029;BME280;53934;52.142;11.738;2022-10-10T01:32:19;101410.63;;;7.67;74.10
67029;BME280;53934;52.142;11.738;2022-10-10T01:34:50;101411.06;;;7.81;74.20
67029;BME280;53934;52.142;11.738;2022-10-10T01:37:20;101409.19;;;7.57;73.40
67029;BME280;53934;52.142;11.738;2022-10-10T01:39:48;101402.50;;;7.76;72.56
67029;BME280;53934;52.142;11.738;2022-10-10T01:42:18;101398.38;;;7.69;71.88
67029;BME280;53934;52.142;11.738;2022-10-10T01:44:45;101395.28;;;7.57;71.88
67029;BME280;53934;52.142;11.738;2022-10-10T01:47:13;101396.47;;;7.45;70.29
67029;BME280;53934;52.142;11.738;2022-10-10T01:49:41;101388.00;;;7.37;72.98
67029;BME280;53934;52.142;11.738;2022-10-10T01:52:13;101386.94;;;7.44;73.01
67029;BME280;53934;52.142;11.738;2022-10-10T01:54:47;101386.59;;;7.25;73.38
67029;BME280;53934;52.142;11.738;2022-10-10T01:57:16;101384.03;;;6.92;75.90
67029;BME280;53934;52.142;11.738;2022-10-10T01:59:46;101372.28;;;7.09;76.28
67029;BME280;53934;52.142;11.738;2022-10-10T02:02:19;101384.66;;;7.01;74.78
67029;BME280;53934;52.142;11.738;2022-10-10T02:04:49;101383.31;;;7.19;74.17
67029;BME280;53934;52.142;11.738;2022-10-10T02:07:18;101378.53;;;7.34;73.52
67029;BME280;53934;52.142;11.738;2022-10-10T02:09:46;101371.59;;;7.33;73.56
67029;BME280;53934;52.142;11.738;2022-10-10T02:12:14;101375.84;;;7.36;72.60
67029;BME280;53934;52.142;11.738;2022-10-10T02:14:41;101369.94;;;7.31;72.48
67029;BME280;53934;52.142;11.738;2022-10-10T02:17:09;101368.13;;;7.33;71.29
67029;BME280;53934;52.142;11.738;2022-10-10T02:19:37;101360.59;;;7.22;72.03
67029;BME280;53934;52.142;11.738;2022-10-10T02:22:04;101360.53;;;6.93;74.26
67029;BME280;53934;52.142;11.738;2022-10-10T02:24:31;101359.91;;;7.16;73.42
67029;BME280;53934;52.142;11.738;2022-10-10T02:26:58;101351.72;;;7.28;71.63
67029;BME280;53934;52.142;11.738;2022-10-10T02:29:28;101350.59;;;7.07;71.26
67029;BME280;53934;52.142;11.738;2022-10-10T02:31:58;101357.97;;;7.24;71.26
67029;BME280;53934;52.142;11.738;2022-10-10T02:34:28;101361.00;;;7.09;70.91
67029;BME280;53934;52.142;11.738;2022-10-10T02:36:59;101359.38;;;7.05;71.37
67029;BME280;53934;52.142;11.738;2022-10-10T02:39:28;101351.75;;;6.97;71.14
67029;BME280;53934;52.142;11.738;2022-10-10T02:41:55;101345.50;;;7.03;70.79
67029;BME280;53934;52.142;11.738;2022-10-10T02:44:22;101352.03;;;6.87;71.48
67029;BME280;53934;52.142;11.738;2022-10-10T02:46:49;101346.19;;;6.77;71.78
67029;BME280;53934;52.142;11.738;2022-10-10T02:49:21;101339.44;;;6.70;72.40
67029;BME280;53934;52.142;11.738;2022-10-10T02:51:47;101341.13;;;6.39;73.37
67029;BME280;53934;52.142;11.738;2022-10-10T02:54:15;101339.31;;;6.41;73.87
67029;BME280;53934;52.142;11.738;2022-10-10T02:56:41;101339.97;;;6.50;73.95
67029;BME280;53934;52.142;11.738;2022-10-10T02:59:07;101332.78;;;6.58;73.99
67029;BME280;53934;52.142;11.738;2022-10-10T03:01:34;101324.66;;;6.70;73.27
67029;BME280;53934;52.142;11.738;2022-10-10T03:04:00;101322.44;;;6.57;72.22
67029;BME280;53934;52.142;11.738;2022-10-10T03:06:26;101333.81;;;6.53;72.31
67029;BME280;53934;52.142;11.738;2022-10-10T03:08:53;101317.00;;;6.64;71.66
67029;BME280;53934;52.142;11.738;2022-10-10T03:11:20;101315.97;;;6.71;71.75
67029;BME280;53934;52.142;11.738;2022-10-10T03:13:47;101325.06;;;6.55;71.92
67029;BME280;53934;52.142;11.738;2022-10-10T03:16:13;101319.56;;;6.66;71.55
67029;BME280;53934;52.142;11.738;2022-10-10T03:18:39;101326.56;;;6.64;71.46
67029;BME280;53934;52.142;11.738;2022-10-10T03:21:05;101317.53;;;6.77;71.40
67029;BME280;53934;52.142;11.738;2022-10-10T03:23:32;101311.94;;;6.58;72.40
67029;BME280;53934;52.142;11.738;2022-10-10T03:25:59;101301.91;;;6.43;72.94
67029;BME280;53934;52.142;11.738;2022-10-10T03:28:27;101300.81;;;6.53;71.90
67029;BME280;53934;52.142;11.738;2022-10-10T03:30:53;101295.19;;;6.68;71.07
67029;BME280;53934;52.142;11.738;2022-10-10T03:33:19;101299.59;;;6.32;70.72
67029;BME280;53934;52.142;11.738;2022-10-10T03:35:46;101293.53;;;6.32;71.96
67029;BME280;53934;52.142;11.738;2022-10-10T03:38:12;101290.94;;;5.98;75.06
67029;BME280;53934;52.142;11.738;2022-10-10T03:40:39;101296.34;;;5.89;77.54
67029;BME280;53934;52.142;11.738;2022-10-10T03:43:06;101289.19;;;5.97;75.87
67029;BME280;53934;52.142;11.738;2022-10-10T03:45:33;101292.28;;;6.13;76.27
67029;BME280;53934;52.142;11.738;2022-10-10T03:48:00;101289.03;;;6.05;75.72
67029;BME280;53934;52.142;11.738;2022-10-10T03:50:26;101292.31;;;5.74;79.07
67029;BME280;53934;52.142;11.738;2022-10-10T03:52:52;101285.91;;;5.89;80.47
67029;BME280;53934;52.142;11.738;2022-10-10T03:55:19;101294.13;;;5.71;81.12
67029;BME280;53934;52.142;11.738;2022-10-10T03:57:45;101286.22;;;5.75;80.49
67029;BME280;53934;52.142;11.738;2022-10-10T04:00:12;101283.91;;;5.62;82.20
67029;BME280;53934;52.142;11.738;2022-10-10T04:02:39;101273.53;;;5.99;80.06
67029;BME280;53934;52.142;11.738;2022-10-10T04:05:06;101278.97;;;5.90;79.03
67029;BME280;53934;52.142;11.738;2022-10-10T04:07:33;101275.59;;;5.84;80.69
67029;BME280;53934;52.142;11.738;2022-10-10T04:09:59;101275.31;;;5.97;80.81
67029;BME280;53934;52.142;11.738;2022-10-10T04:12:25;101271.75;;;6.01;80.43
67029;BME280;53934;52.142;11.738;2022-10-10T04:14:52;101266.84;;;5.88;82.62
67029;BME280;53934;52.142;11.738;2022-10-10T04:17:18;101269.75;;;6.12;80.95
67029;BME280;53934;52.142;11.738;2022-10-10T04:19:46;101267.53;;;6.30;80.06
67029;BME280;53934;52.142;11.738;2022-10-10T04:22:12;101266.66;;;6.31;80.46
67029;BME280;53934;52.142;11.738;2022-10-10T04:24:40;101258.00;;;6.29;79.85
67029;BME280;53934;52.142;11.738;2022-10-10T04:27:06;101264.72;;;6.70;78.78
67029;BME280;53934;52.142;11.738;2022-10-10T04:29:33;101256.59;;;6.81;77.95
67029;BME280;53934;52.142;11.738;2022-10-10T04:31:59;101244.19;;;7.20;76.69
67029;BME280;53934;52.142;11.738;2022-10-10T04:34:25;101244.34;;;7.14;76.54
67029;BME280;53934;52.142;11.738;2022-10-10T04:36:53;101235.41;;;7.50;74.43
67029;BME280;53934;52.142;11.738;2022-10-10T04:39:19;101233.38;;;7.60;74.14
67029;BME280;53934;52.142;11.738;2022-10-10T04:41:46;101239.44;;;7.32;74.94
67029;BME280;53934;52.142;11.738;2022-10-10T04:44:13;101237.25;;;7.19;75.01
67029;BME280;53934;52.142;11.738;2022-10-10T04:46:40;101236.47;;;7.45;74.15
67029;BME280;53934;52.142;11.738;2022-10-10T04:49:06;101235.25;;;7.82;73.22
67029;BME280;53934;52.142;11.738;2022-10-10T04:51:32;101228.88;;;7.65;74.55
67029;BME280;53934;52.142;11.738;2022-10-10T04:54:00;101229.00;;;7.32;74.22
67029;BME280;53934;52.142;11.738;2022-10-10T04:56:26;101225.38;;;7.38;74.65
67029;BME280;53934;52.142;11.738;2022-10-10T04:58:53;101224.75;;;7.30;74.83
67029;BME280;53934;52.142;11.738;2022-10-10T05:01:19;101228.66;;;7.15;75.13
67029;BME280;53934;52.142;11.738;2022-10-10T05:03:45;101224.84;;;6.98;75.61
67029;BME280;53934;52.142;11.738;2022-10-10T05:06:11;101233.22;;;6.78;76.60
67029;BME280;53934;52.142;11.738;2022-10-10T05:08:38;101220.44;;;7.00;77.32
67029;BME280;53934;52.142;11.738;2022-10-10T05:11:06;101220.22;;;6.76;76.30
67029;BME280;53934;52.142;11.738;2022-10-10T05:13:32;101224.09;;;6.63;77.02
67029;BME280;53934;52.142;11.738;2022-10-10T05:15:58;101225.75;;;6.97;75.89
67029;BME280;53934;52.142;11.738;2022-10-10T05:18:25;101227.28;;;6.73;76.65
67029;BME280;53934;52.142;11.738;2022-10-10T05:20:51;101224.44;;;6.82;76.73
67029;BME280;53934;52.142;11.738;2022-10-10T05:23:17;101216.94;;;7.01;75.97
67029;BME280;53934;52.142;11.738;2022-10-10T05:25:44;101227.00;;;7.13;77.10
67029;BME280;53934;52.142;11.738;2022-10-10T05:28:12;101219.00;;;7.19;76.59
67029;BME280;53934;52.142;11.738;2022-10-10T05:30:38;101225.84;;;6.94;76.48
67029;BME280;53934;52.142;11.738;2022-10-10T05:33:04;101228.44;;;6.63;77.01
67029;BME280;53934;52.142;11.738;2022-10-10T05:35:30;101221.78;;;6.83;76.85
67029;BME280;53934;52.142;11.738;2022-10-10T05:37:57;101217.06;;;6.96;77.03
67029;BME280;53934;52.142;11.738;2022-10-10T05:40:23;101207.25;;;7.06;75.27
67029;BME280;53934;52.142;11.738;2022-10-10T05:42:50;101206.75;;;6.92;75.44
67029;BME280;53934;52.142;11.738;2022-10-10T05:45:17;101200.84;;;7.16;75.39
67029;BME280;53934;52.142;11.738;2022-10-10T05:47:43;101189.81;;;7.06;76.65
67029;BME280;53934;52.142;11.738;2022-10-10T05:50:13;101188.47;;;7.22;77.06
67029;BME280;53934;52.142;11.738;2022-10-10T05:52:44;101193.44;;;7.30;76.80
67029;BME280;53934;52.142;11.738;2022-10-10T05:55:10;101186.28;;;7.37;75.30
67029;BME280;53934;52.142;11.738;2022-10-10T05:57:37;101182.75;;;7.38;74.75
67029;BME280;53934;52.142;11.738;2022-10-10T06:00:03;101191.25;;;7.16;75.44
67029;BME280;53934;52.142;11.738;2022-10-10T06:02:31;101189.31;;;7.23;76.10
67029;BME280;53934;52.142;11.738;2022-10-10T06:04:57;101187.56;;;7.23;76.45
67029;BME280;53934;52.142;11.738;2022-10-10T06:07:24;101188.69;;;6.87;78.11
67029;BME280;53934;52.142;11.738;2022-10-10T06:09:50;101192.19;;;6.84;79.29
67029;BME280;53934;52.142;11.738;2022-10-10T06:12:16;101188.09;;;7.34;79.12
67029;BME280;53934;52.142;11.738;2022-10-10T06:14:43;101188.00;;;7.64;78.24
67029;BME280;53934;52.142;11.738;2022-10-10T06:17:09;101197.22;;;8.25;76.46
67029;BME280;53934;52.142;11.738;2022-10-10T06:19:37;101192.13;;;8.47;74.76
67029;BME280;53934;52.142;11.738;2022-10-10T06:22:03;101188.97;;;8.85;72.71
67029;BME280;53934;52.142;11.738;2022-10-10T06:24:29;101194.16;;;8.63;73.23
67029;BME280;53934;52.142;11.738;2022-10-10T06:26:56;101200.13;;;8.67;74.65
67029;BME280;53934;52.142;11.738;2022-10-10T06:29:22;101186.84;;;9.40;72.69
67029;BME280;53934;52.142;11.738;2022-10-10T06:31:48;101187.72;;;9.40;73.05
67029;BME280;53934;52.142;11.738;2022-10-10T06:34:15;101176.47;;;9.80;72.49
67029;BME280;53934;52.142;11.738;2022-10-10T06:36:42;101176.00;;;9.91;72.15
67029;BME280;53934;52.142;11.738;2022-10-10T06:39:09;101178.03;;;9.84;72.71
67029;BME280;53934;52.142;11.738;2022-10-10T06:41:35;101179.81;;;10.25;72.03
67029;BME280;53934;52.142;11.738;2022-10-10T06:44:01;101181.13;;;10.54;71.23
67029;BME280;53934;52.142;11.738;2022-10-10T06:46:28;101181.19;;;10.34;71.03
67029;BME280;53934;52.142;11.738;2022-10-10T06:48:54;101169.06;;;10.70;70.39
67029;BME280;53934;52.142;11.738;2022-10-10T06:51:20;101170.81;;;10.31;72.15
67029;BME280;53934;52.142;11.738;2022-10-10T06:53:48;101175.84;;;10.74;70.43
67029;BME280;53934;52.142;11.738;2022-10-10T06:56:14;101165.41;;;11.29;68.20
67029;BME280;53934;52.142;11.738;2022-10-10T06:58:45;101170.03;;;10.68;70.77
67029;BME280;53934;52.142;11.738;2022-10-10T07:01:12;101171.28;;;10.41;72.21
67029;BME280;53934;52.142;11.738;2022-10-10T07:03:38;101167.59;;;10.04;73.58
67029;BME280;53934;52.142;11.738;2022-10-10T07:06:06;101166.44;;;10.89;72.72
67029;BME280;53934;52.142;11.738;2022-10-10T07:08:33;101163.44;;;11.15;71.40
67029;BME280;53934;52.142;11.738;2022-10-10T07:11:01;101172.41;;;11.64;68.51
67029;BME280;53934;52.142;11.738;2022-10-10T07:13:27;101161.66;;;11.16;70.38
67029;BME280;53934;52.142;11.738;2022-10-10T07:15:53;101160.41;;;12.29;68.82
67029;BME280;53934;52.142;11.738;2022-10-10T07:18:20;101159.06;;;11.69;68.42
67029;BME280;53934;52.142;11.738;2022-10-10T07:20:46;101158.97;;;11.89;67.07
67029;BME280;53934;52.142;11.738;2022-10-10T07:23:13;101166.38;;;12.15;66.83
67029;BME280;53934;52.142;11.738;2022-10-10T07:25:40;101163.91;;;12.94;64.15
67029;BME280;53934;52.142;11.738;2022-10-10T07:28:09;101150.41;;;12.84;64.11
67029;BME280;53934;52.142;11.738;2022-10-10T07:30:37;101162.06;;;13.27;63.66
67029;BME280;53934;52.142;11.738;2022-10-10T07:33:04;101153.97;;;13.61;62.61
67029;BME280;53934;52.142;11.738;2022-10-10T07:35:30;101155.69;;;13.31;62.95
67029;BME280;53934;52.142;11.738;2022-10-10T07:37:56;101148.94;;;14.31;60.72
67029;BME280;53934;52.142;11.738;2022-10-10T07:40:23;101143.69;;;13.87;60.48
67029;BME280;53934;52.142;11.738;2022-10-10T07:42:49;101150.69;;;13.42;61.83
67029;BME280;53934;52.142;11.738;2022-10-10T07:45:17;101140.81;;;13.46;65.51
67029;BME280;53934;52.142;11.738;2022-10-10T07:47:43;101157.28;;;12.87;65.27
67029;BME280;53934;52.142;11.738;2022-10-10T07:50:10;101146.53;;;13.68;63.78
67029;BME280;53934;52.142;11.738;2022-10-10T07:52:36;101145.09;;;13.48;61.77
67029;BME280;53934;52.142;11.738;2022-10-10T07:55:03;101145.63;;;14.27;61.65
67029;BME280;53934;52.142;11.738;2022-10-10T07:57:29;101134.72;;;15.57;57.25
67029;BME280;53934;52.142;11.738;2022-10-10T07:59:59;101141.16;;;15.53;58.02
67029;BME280;53934;52.142;11.738;2022-10-10T08:02:26;101134.38;;;14.68;57.19
67029;BME280;53934;52.142;11.738;2022-10-10T08:04:53;101135.00;;;14.14;59.30
67029;BME280;53934;52.142;11.738;2022-10-10T08:07:19;101142.72;;;13.74;60.71
67029;BME280;53934;52.142;11.738;2022-10-10T08:09:45;101137.00;;;13.36;61.39
67029;BME280;53934;52.142;11.738;2022-10-10T08:12:11;101127.50;;;13.02;64.36
67029;BME280;53934;52.142;11.738;2022-10-10T08:14:38;101135.66;;;13.44;63.38
67029;BME280;53934;52.142;11.738;2022-10-10T08:17:04;101121.47;;;14.35;59.56
67029;BME280;53934;52.142;11.738;2022-10-10T08:19:32;101123.88;;;14.09;60.38
67029;BME280;53934;52.142;11.738;2022-10-10T08:21:59;101118.91;;;15.43;58.10
67029;BME280;53934;52.142;11.738;2022-10-10T08:24:25;101121.00;;;15.38;56.82
67029;BME280;53934;52.142;11.738;2022-10-10T08:26:51;101121.06;;;15.90;55.50
67029;BME280;53934;52.142;11.738;2022-10-10T08:29:18;101122.34;;;16.10;56.44
67029;BME280;53934;52.142;11.738;2022-10-10T08:31:44;101118.63;;;15.48;55.23
67029;BME280;53934;52.142;11.738;2022-10-10T08:34:10;101112.28;;;14.83;56.38
67029;BME280;53934;52.142;11.738;2022-10-10T08:36:38;101113.06;;;14.85;58.36
67029;BME280;53934;52.142;11.738;2022-10-10T08:39:04;101120.66;;;14.04;59.61
67029;BME280;53934;52.142;11.738;2022-10-10T08:41:33;101113.47;;;14.50;59.15
67029;BME280;53934;52.142;11.738;2022-10-10T08:44:03;101107.25;;;15.33;56.94
67029;BME280;53934;52.142;11.738;2022-10-10T08:46:35;101098.97;;;16.29;54.48
67029;BME280;53934;52.142;11.738;2022-10-10T08:49:02;101095.53;;;16.52;55.23
67029;BME280;53934;52.142;11.738;2022-10-10T08:51:35;101086.81;;;16.88;52.01
67029;BME280;53934;52.142;11.738;2022-10-10T08:54:04;101094.97;;;17.91;50.60
67029;BME280;53934;52.142;11.738;2022-10-10T08:56:32;101074.56;;;17.70;50.10
67029;BME280;53934;52.142;11.738;2022-10-10T08:59:00;101069.78;;;18.86;48.65
67029;BME280;53934;52.142;11.738;2022-10-10T09:01:30;101076.31;;;19.25;46.37
67029;BME280;53934;52.142;11.738;2022-10-10T09:03:59;101074.56;;;19.03;46.81
67029;BME280;53934;52.142;11.738;2022-10-10T09:06:29;101081.38;;;18.29;47.29
67029;BME280;53934;52.142;11.738;2022-10-10T09:09:02;101074.50;;;18.49;48.13
67029;BME280;53934;52.142;11.738;2022-10-10T09:11:38;101076.91;;;17.03;51.95
67029;BME280;53934;52.142;11.738;2022-10-10T09:14:10;101078.19;;;16.97;51.28
67029;BME280;53934;52.142;11.738;2022-10-10T09:16:44;101078.88;;;17.71;52.43
67029;BME280;53934;52.142;11.738;2022-10-10T09:19:18;101065.88;;;17.44;50.41
67029;BME280;53934;52.142;11.738;2022-10-10T09:21:48;101071.25;;;17.31;52.67
67029;BME280;53934;52.142;11.738;2022-10-10T09:24:17;101067.00;;;17.98;50.63
67029;BME280;53934;52.142;11.738;2022-10-10T09:26:47;101066.75;;;17.90;49.27
67029;BME280;53934;52.142;11.738;2022-10-10T09:29:22;101062.44;;;18.45;49.14
67029;BME280;53934;52.142;11.738;2022-10-10T09:31:51;101063.16;;;17.57;52.01
67029;BME280;53934;52.142;11.738;2022-10-10T09:34:30;101069.16;;;17.82;51.65
67029;BME280;53934;52.142;11.738;2022-10-10T09:36:57;101060.28;;;18.17;50.46
67029;BME280;53934;52.142;11.738;2022-10-10T09:39:28;101054.72;;;18.75;49.10
67029;BME280;53934;52.142;11.738;2022-10-10T09:41:59;101053.16;;;18.28;49.73
67029;BME280;53934;52.142;11.738;2022-10-10T09:44:26;101050.00;;;18.12;50.06
67029;BME280;53934;52.142;11.738;2022-10-10T09:46:52;101062.03;;;17.83;50.11
67029;BME280;53934;52.142;11.738;2022-10-10T09:49:19;101057.63;;;17.60;51.39
67029;BME280;53934;52.142;11.738;2022-10-10T09:51:47;101061.25;;;17.11;52.50
67029;BME280;53934;52.142;11.738;2022-10-10T09:54:14;101048.78;;;17.94;52.36
67029;BME280;53934;52.142;11.738;2022-10-10T09:56:41;101050.75;;;18.25;50.07
67029;BME280;53934;52.142;11.738;2022-10-10T10:02:01;101037.59;;;18.57;49.67
67029;BME280;53934;52.142;11.738;2022-10-10T10:04:30;101044.22;;;18.40;49.96
67029;BME280;53934;52.142;11.738;2022-10-10T10:07:04;101043.59;;;18.70;50.17
67029;BME280;53934;52.142;11.738;2022-10-10T10:09:33;101035.06;;;18.56;50.13
67029;BME280;53934;52.142;11.738;2022-10-10T10:11:59;101032.22;;;17.68;52.07
67029;BME280;53934;52.142;11.738;2022-10-10T10:14:26;101042.94;;;17.67;52.22
67029;BME280;53934;52.142;11.738;2022-10-10T10:16:54;101045.63;;;17.78;51.44
67029;BME280;53934;52.142;11.738;2022-10-10T10:19:32;101034.34;;;18.54;50.97
67029;BME280;53934;52.142;11.738;2022-10-10T10:21:58;101033.97;;;18.58;50.60
67029;BME280;53934;52.142;11.738;2022-10-10T10:24:28;101039.63;;;19.39;47.97
67029;BME280;53934;52.142;11.738;2022-10-10T10:26:55;101043.06;;;19.30;48.43
67029;BME280;53934;52.142;11.738;2022-10-10T10:29:26;101036.91;;;19.62;47.60
67029;BME280;53934;52.142;11.738;2022-10-10T10:31:53;101022.25;;;20.68;46.35
67029;BME280;53934;52.142;11.738;2022-10-10T10:34:27;101019.25;;;20.42;46.20
67029;BME280;53934;52.142;11.738;2022-10-10T10:36:58;101025.00;;;20.17;46.63
67029;BME280;53934;52.142;11.738;2022-10-10T10:39:33;101024.69;;;20.40;45.23
67029;BME280;53934;52.142;11.738;2022-10-10T10:42:03;101019.25;;;20.52;44.50
67029;BME280;53934;52.142;11.738;2022-10-10T10:44:38;101021.00;;;20.72;46.52
67029;BME280;53934;52.142;11.738;2022-10-10T10:47:16;101014.00;;;20.01;46.84
67029;BME280;53934;52.142;11.738;2022-10-10T10:49:46;101016.44;;;20.13;46.93
67029;BME280;53934;52.142;11.738;2022-10-10T10:52:31;101007.63;;;20.13;45.88
67029;BME280;53934;52.142;11.738;2022-10-10T10:55:03;101010.22;;;19.73;46.90
67029;BME280;53934;52.142;11.738;2022-10-10T10:57:37;101017.47;;;19.71;46.79
67029;BME280;53934;52.142;11.738;2022-10-10T11:00:07;100992.78;;;20.20;46.90
67029;BME280;53934;52.142;11.738;2022-10-10T11:02:36;101006.13;;;20.79;47.71
67029;BME280;53934;52.142;11.738;2022-10-10T11:05:07;101004.63;;;21.05;43.88
67029;BME280;53934;52.142;11.738;2022-10-10T11:07:44;101000.38;;;20.64;45.83
67029;BME280;53934;52.142;11.738;2022-10-10T11:10:16;101002.81;;;21.15;44.87
67029;BME280;53934;52.142;11.738;2022-10-10T11:12:50;100998.63;;;21.13;45.90
67029;BME280;53934;52.142;11.738;2022-10-10T11:15:20;100987.94;;;21.32;46.22
67029;BME280;53934;52.142;11.738;2022-10-10T11:17:49;100984.69;;;21.09;44.25
67029;BME280;53934;52.142;11.738;2022-10-10T11:20:22;100992.53;;;20.82;45.01
67029;BME280;53934;52.142;11.738;2022-10-10T11:22:56;100993.38;;;20.73;45.94
67029;BME280;53934;52.142;11.738;2022-10-10T11:25:27;100990.75;;;21.30;45.85
67029;BME280;53934;52.142;11.738;2022-10-10T11:27:56;101003.63;;;20.87;44.94
67029;BME280;53934;52.142;11.738;2022-10-10T11:30:25;100988.84;;;20.54;47.25
67029;BME280;53934;52.142;11.738;2022-10-10T11:32:53;100996.09;;;21.30;46.39
67029;BME280;53934;52.142;11.738;2022-10-10T11:35:26;100990.72;;;21.40;46.41
67029;BME280;53934;52.142;11.738;2022-10-10T11:37:58;100979.19;;;21.59;42.75
67029;BME280;53934;52.142;11.738;2022-10-10T11:40:27;100975.28;;;20.86;46.16
67029;BME280;53934;52.142;11.738;2022-10-10T11:42:55;100962.66;;;20.69;44.97
67029;BME280;53934;52.142;11.738;2022-10-10T11:45:26;100969.69;;;21.08;44.49
67029;BME280;53934;52.142;11.738;2022-10-10T11:47:54;100969.13;;;21.05;44.67
67029;BME280;53934;52.142;11.738;2022-10-10T11:50:25;100963.47;;;21.56;45.41
67029;BME280;53934;52.142;11.738;2022-10-10T11:52:53;100968.78;;;21.56;44.51
67029;BME280;53934;52.142;11.738;2022-10-10T11:55:23;100966.19;;;21.83;42.24
67029;BME280;53934;52.142;11.738;2022-10-10T11:57:52;100961.69;;;21.93;43.24
67029;BME280;53934;52.142;11.738;2022-10-10T12:00:20;100960.31;;;22.16;41.93
67029;BME280;53934;52.142;11.738;2022-10-10T12:02:46;100967.56;;;22.51;42.69
67029;BME280;53934;52.142;11.738;2022-10-10T12:05:20;100958.69;;;22.06;42.69
67029;BME280;53934;52.142;11.738;2022-10-10T12:07:57;100966.09;;;22.12;42.33
67029;BME280;53934;52.142;11.738;2022-10-10T12:10:29;100965.09;;;21.76;44.01
67029;BME280;53934;52.142;11.738;2022-10-10T12:12:57;100956.22;;;21.39;42.71
67029;BME280;53934;52.142;11.738;2022-10-10T12:15:30;100956.56;;;22.09;41.69
67029;BME280;53934;52.142;11.738;2022-10-10T12:17:57;100957.97;;;22.04;42.07
67029;BME280;53934;52.142;11.738;2022-10-10T12:20:30;100952.94;;;22.01;41.62
67029;BME280;53934;52.142;11.738;2022-10-10T12:23:16;100958.97;;;22.03;42.25
67029;BME280;53934;52.142;11.738;2022-10-10T12:25:46;100954.94;;;22.44;41.86
67029;BME280;53934;52.142;11.738;2022-10-10T12:28:23;100952.31;;;21.70;41.24
67029;BME280;53934;52.142;11.738;2022-10-10T12:41:55;100942.66;;;22.78;39.67
67029;BME280;53934;52.142;11.738;2022-10-10T12:44:22;100940.25;;;23.10;38.67
67029;BME280;53934;52.142;11.738;2022-10-10T12:49:31;100925.97;;;24.05;36.24
67029;BME280;53934;52.142;11.738;2022-10-10T12:51:58;100933.56;;;23.84;37.64
67029;BME280;53934;52.142;11.738;2022-10-10T12:54:26;100920.19;;;23.84;37.22
67029;BME280;53934;52.142;11.738;2022-10-10T12:57:01;100928.31;;;23.22;38.03
67029;BME280;53934;52.142;11.738;2022-10-10T12:59:28;100930.75;;;22.72;38.81
67029;BME280;53934;52.142;11.738;2022-10-10T13:01:55;100917.28;;;21.92;39.83
67029;BME280;53934;52.142;11.738;2022-10-10T13:04:22;100917.91;;;21.67;41.36
67029;BME280;53934;52.142;11.738;2022-10-10T13:06:50;100911.72;;;22.30;40.44
67029;BME280;53934;52.142;11.738;2022-10-10T13:09:18;100920.75;;;22.02;40.07